createdAt,value
2018-12-23T00:00:02.517Z,6.70
2018-12-23T00:02:30.834Z,6.80
2018-12-23T00:04:59.033Z,6.80
2018-12-23T00:07:27.268Z,6.80
2018-12-23T00:09:55.531Z,6.80
2018-12-23T00:12:23.915Z,6.80
2018-12-23T00:14:52.393Z,6.80
2018-12-23T00:17:20.834Z,6.90
2018-12-23T00:19:49.357Z,6.90
2018-12-23T00:22:17.628Z,6.90
2018-12-23T00:24:45.904Z,7.00
2018-12-23T00:27:14.439Z,7.00
2018-12-23T00:29:43.012Z,7.00
2018-12-23T00:32:11.378Z,7.10
2018-12-23T00:34:39.725Z,7.00
2018-12-23T00:37:07.996Z,7.00
2018-12-23T00:39:36.199Z,7.00
2018-12-23T00:42:04.770Z,7.00
2018-12-23T00:44:33.133Z,7.00
2018-12-23T00:47:01.404Z,7.00
2018-12-23T00:49:29.620Z,7.10
2018-12-23T00:51:57.837Z,7.10
2018-12-23T00:54:26.467Z,7.20
2018-12-23T00:56:54.885Z,7.20
2018-12-23T00:59:23.205Z,7.10
2018-12-23T01:01:51.576Z,7.10
2018-12-23T01:04:20.175Z,7.10
2018-12-23T01:06:48.605Z,7.10
2018-12-23T01:09:17.088Z,7.10
2018-12-23T01:11:45.278Z,7.00
2018-12-23T01:14:13.654Z,7.00
2018-12-23T01:16:41.966Z,7.10
2018-12-23T01:19:10.327Z,7.10
2018-12-23T01:21:38.722Z,7.00
2018-12-23T01:24:07.180Z,7.10
2018-12-23T01:26:36.244Z,7.10
2018-12-23T01:29:05.398Z,7.10
2018-12-23T01:31:33.898Z,7.10
2018-12-23T01:34:03.069Z,7.00
2018-12-23T01:36:31.767Z,7.00
2018-12-23T01:39:00.638Z,7.00
2018-12-23T01:41:29.246Z,7.10
2018-12-23T01:43:58.324Z,7.10
2018-12-23T01:46:26.581Z,7.20
2018-12-23T01:48:54.904Z,7.20
2018-12-23T01:51:23.368Z,7.20
2018-12-23T01:53:53.676Z,7.20
2018-12-23T01:56:24.248Z,7.20
2018-12-23T01:58:53.178Z,7.10
2018-12-23T02:01:22.745Z,7.20
2018-12-23T02:03:51.028Z,7.20
2018-12-23T02:06:21.971Z,7.20
2018-12-23T02:08:51.942Z,7.20
2018-12-23T02:11:20.426Z,7.20
2018-12-23T02:13:48.829Z,7.20
2018-12-23T02:16:17.296Z,7.10
2018-12-23T02:18:45.910Z,7.10
2018-12-23T02:21:14.634Z,7.10
2018-12-23T02:26:39.931Z,7.20
2018-12-23T02:29:08.589Z,7.20
2018-12-23T02:31:37.029Z,7.20
2018-12-23T02:34:05.382Z,7.20
2018-12-23T02:36:34.135Z,7.20
2018-12-23T02:39:03.049Z,7.20
2018-12-23T02:41:32.146Z,7.30
2018-12-23T02:44:00.786Z,7.30
2018-12-23T02:46:29.337Z,7.30
2018-12-23T02:48:59.079Z,7.30
2018-12-23T02:51:28.152Z,7.30
2018-12-23T02:53:56.424Z,7.20
2018-12-23T02:56:24.796Z,7.20
2018-12-23T02:58:53.222Z,7.20
2018-12-23T03:01:21.707Z,7.20
2018-12-23T03:03:50.195Z,7.20
2018-12-23T03:06:18.525Z,7.20
2018-12-23T03:08:46.899Z,7.20
2018-12-23T03:11:15.257Z,7.20
2018-12-23T03:13:43.540Z,7.20
2018-12-23T03:16:12.214Z,7.30
2018-12-23T03:18:40.486Z,7.30
2018-12-23T03:21:08.728Z,7.30
2018-12-23T03:23:36.965Z,7.30
2018-12-23T03:26:05.152Z,7.30
2018-12-23T03:28:33.419Z,7.30
2018-12-23T03:31:01.928Z,7.40
2018-12-23T03:33:30.315Z,7.30
2018-12-23T03:35:58.892Z,7.40
2018-12-23T03:38:27.664Z,7.50
2018-12-23T03:40:56.044Z,7.50
2018-12-23T03:43:24.504Z,7.60
2018-12-23T03:45:53.125Z,7.50
2018-12-23T03:48:21.587Z,7.50
2018-12-23T03:50:50.239Z,7.50
2018-12-23T03:53:19.971Z,7.60
2018-12-23T03:55:50.950Z,7.60
2018-12-23T03:58:19.496Z,7.60
2018-12-23T04:00:49.155Z,7.50
2018-12-23T04:03:19.739Z,7.50
2018-12-23T04:05:49.467Z,7.60
2018-12-23T04:08:17.856Z,7.60
2018-12-23T04:10:46.173Z,7.60
2018-12-23T04:13:14.362Z,7.60
2018-12-23T04:15:43.348Z,7.60
2018-12-23T04:18:11.828Z,7.60
2018-12-23T04:20:40.220Z,7.50
2018-12-23T04:23:09.010Z,7.60
2018-12-23T04:25:37.306Z,7.60
2018-12-23T04:31:01.820Z,7.50
2018-12-23T04:33:30.043Z,7.50
2018-12-23T04:35:58.355Z,7.50
2018-12-23T04:38:27.027Z,7.50
2018-12-23T04:40:55.615Z,7.50
2018-12-23T04:43:24.284Z,7.50
2018-12-23T04:45:53.021Z,7.50
2018-12-23T04:48:21.597Z,7.40
2018-12-23T04:50:50.962Z,7.50
2018-12-23T04:53:19.414Z,7.50
2018-12-23T04:55:47.942Z,7.50
2018-12-23T04:58:16.297Z,7.40
2018-12-23T05:00:44.677Z,7.50
2018-12-23T05:03:13.349Z,7.40
2018-12-23T05:05:41.611Z,7.50
2018-12-23T05:08:09.806Z,7.60
2018-12-23T05:10:37.974Z,7.50
2018-12-23T05:13:06.350Z,7.50
2018-12-23T05:15:34.972Z,7.50
2018-12-23T05:18:03.756Z,7.50
2018-12-23T05:20:32.121Z,7.60
2018-12-23T05:23:00.595Z,7.50
2018-12-23T05:25:28.948Z,7.50
2018-12-23T05:27:57.319Z,7.50
2018-12-23T05:30:32.552Z,7.50
2018-12-23T05:33:09.112Z,7.50
2018-12-23T05:35:37.233Z,7.50
2018-12-23T05:38:05.440Z,7.50
2018-12-23T05:40:33.659Z,7.50
2018-12-23T05:43:01.949Z,7.50
2018-12-23T05:48:29.011Z,7.50
2018-12-23T05:50:57.444Z,7.50
2018-12-23T05:53:25.631Z,7.50
2018-12-23T05:55:53.540Z,7.40
2018-12-23T05:58:21.769Z,7.50
2018-12-23T06:00:49.984Z,7.40
2018-12-23T06:03:18.513Z,7.40
2018-12-23T06:05:46.774Z,7.40
2018-12-23T06:08:15.015Z,7.30
2018-12-23T06:10:43.526Z,7.20
2018-12-23T06:13:11.788Z,7.30
2018-12-23T06:15:40.209Z,7.30
2018-12-23T06:18:20.754Z,7.40
2018-12-23T06:23:53.547Z,7.30
2018-12-23T06:26:26.718Z,7.30
2018-12-23T06:28:54.890Z,7.30
2018-12-23T06:31:23.062Z,7.30
2018-12-23T06:33:51.249Z,7.40
2018-12-23T06:36:19.770Z,7.50
2018-12-23T06:38:48.407Z,7.40
2018-12-23T06:41:16.603Z,7.40
2018-12-23T06:43:44.851Z,7.40
2018-12-23T06:46:13.386Z,7.40
2018-12-23T06:48:41.835Z,7.40
2018-12-23T06:51:10.303Z,7.40
2018-12-23T06:53:38.548Z,7.40
2018-12-23T06:56:06.736Z,7.40
2018-12-23T06:58:35.017Z,7.40
2018-12-23T07:01:03.226Z,7.40
2018-12-23T07:03:31.622Z,7.40
2018-12-23T07:06:00.051Z,7.40
2018-12-23T07:08:28.525Z,7.40
2018-12-23T07:10:57.004Z,7.40
2018-12-23T07:13:25.598Z,7.40
2018-12-23T07:15:53.967Z,7.40
2018-12-23T07:18:22.251Z,7.40
2018-12-23T07:20:50.620Z,7.40
2018-12-23T07:23:19.335Z,7.30
2018-12-23T07:25:47.999Z,7.30
2018-12-23T07:28:16.987Z,7.30
2018-12-23T07:30:45.468Z,7.30
2018-12-23T07:33:33.313Z,7.30
2018-12-23T07:39:01.088Z,7.20
2018-12-23T07:41:29.315Z,7.10
2018-12-23T07:43:57.649Z,7.20
2018-12-23T07:46:25.841Z,7.20
2018-12-23T07:48:54.063Z,7.20
2018-12-23T07:51:22.214Z,7.20
2018-12-23T07:53:50.381Z,7.20
2018-12-23T07:56:18.543Z,7.20
2018-12-23T07:58:46.964Z,7.10
2018-12-23T08:01:20.077Z,7.10
2018-12-23T08:03:49.755Z,7.10
2018-12-23T08:06:18.045Z,7.10
2018-12-23T08:08:46.397Z,7.10
2018-12-23T08:11:14.624Z,7.10
2018-12-23T08:13:42.831Z,7.10
2018-12-23T08:16:11.211Z,7.10
2018-12-23T08:18:39.826Z,7.10
2018-12-23T08:21:08.127Z,7.00
2018-12-23T08:23:36.977Z,7.10
2018-12-23T08:26:05.493Z,7.10
2018-12-23T08:28:34.002Z,7.10
2018-12-23T08:31:02.665Z,7.20
2018-12-23T08:33:31.507Z,7.20
2018-12-23T08:36:00.044Z,7.20
2018-12-23T08:38:28.309Z,7.20
2018-12-23T08:40:56.591Z,7.30
2018-12-23T08:43:24.958Z,7.30
2018-12-23T08:45:54.640Z,7.30
2018-12-23T08:48:23.131Z,7.20
2018-12-23T08:50:51.436Z,7.30
2018-12-23T08:53:19.811Z,7.30
2018-12-23T08:55:48.087Z,7.40
2018-12-23T08:58:16.254Z,7.40
2018-12-23T09:00:45.440Z,7.40
2018-12-23T09:03:18.843Z,7.40
2018-12-23T09:05:44.779Z,7.50
2018-12-23T09:08:14.963Z,7.50
2018-12-23T09:11:06.594Z,7.60
2018-12-23T09:13:34.887Z,7.50
2018-12-23T09:16:03.095Z,7.60
2018-12-23T09:18:31.436Z,7.50
2018-12-23T09:20:59.655Z,7.50
2018-12-23T09:23:27.940Z,7.50
2018-12-23T09:25:56.123Z,7.60
2018-12-23T09:28:24.445Z,7.60
2018-12-23T09:30:52.702Z,7.60
2018-12-23T09:33:21.030Z,7.50
2018-12-23T09:35:49.364Z,7.60
2018-12-23T09:38:17.557Z,7.60
2018-12-23T09:40:45.885Z,7.60
2018-12-23T09:43:14.929Z,7.60
2018-12-23T09:45:43.278Z,7.60
2018-12-23T09:48:20.597Z,7.70
2018-12-23T09:50:48.967Z,7.70
2018-12-23T09:53:17.348Z,7.70
2018-12-23T09:55:55.988Z,7.60
2018-12-23T09:58:24.541Z,7.70
2018-12-23T10:00:53.447Z,7.70
2018-12-23T10:03:22.310Z,7.60
2018-12-23T10:05:51.664Z,7.70
2018-12-23T10:08:20.079Z,7.70
2018-12-23T10:10:48.595Z,7.70
2018-12-23T10:13:17.096Z,7.80
2018-12-23T10:15:45.443Z,7.80
2018-12-23T10:18:13.818Z,7.80
2018-12-23T10:20:42.095Z,7.70
2018-12-23T10:23:10.432Z,7.70
2018-12-23T10:25:38.685Z,7.70
2018-12-23T10:28:06.876Z,7.80
2018-12-23T10:30:35.111Z,7.70
2018-12-23T10:33:03.697Z,7.80
2018-12-23T10:35:31.963Z,7.80
2018-12-23T10:38:00.665Z,7.80
2018-12-23T10:40:29.121Z,7.70
2018-12-23T10:42:57.632Z,7.70
2018-12-23T10:45:26.310Z,7.60
2018-12-23T10:47:54.576Z,7.60
2018-12-23T10:50:22.954Z,7.60
2018-12-23T10:52:54.827Z,7.60
2018-12-23T10:55:23.461Z,7.60
2018-12-23T10:57:56.914Z,7.50
2018-12-23T11:00:42.986Z,7.50
2018-12-23T11:03:11.701Z,7.40
2018-12-23T11:05:40.460Z,7.50
2018-12-23T11:08:09.023Z,7.50
2018-12-23T11:13:54.750Z,7.60
2018-12-23T11:16:25.556Z,7.60
2018-12-23T11:18:56.550Z,7.70
2018-12-23T11:21:25.263Z,7.60
2018-12-23T11:23:53.528Z,7.70
2018-12-23T11:26:21.771Z,7.60
2018-12-23T11:28:49.928Z,7.60
2018-12-23T11:31:18.342Z,7.60
2018-12-23T11:33:46.633Z,7.60
2018-12-23T11:36:14.924Z,7.60
2018-12-23T11:38:43.366Z,7.60
2018-12-23T11:41:11.683Z,7.50
2018-12-23T11:43:39.914Z,7.60
2018-12-23T11:46:08.135Z,7.50
2018-12-23T11:48:36.486Z,7.60
2018-12-23T11:51:06.707Z,7.70
2018-12-23T11:53:35.271Z,7.60
2018-12-23T11:56:03.682Z,7.60
2018-12-23T11:58:32.281Z,7.60
2018-12-23T12:01:00.732Z,7.60
2018-12-23T12:03:30.275Z,7.60
2018-12-23T12:05:58.679Z,7.70
2018-12-23T12:08:27.135Z,7.70
2018-12-23T12:10:55.367Z,7.70
2018-12-23T12:13:23.628Z,7.70
2018-12-23T12:15:51.894Z,7.70
2018-12-23T12:18:20.079Z,7.80
2018-12-23T12:20:48.353Z,7.70
2018-12-23T12:23:17.088Z,7.70
2018-12-23T12:25:45.353Z,7.80
2018-12-23T12:28:13.661Z,7.90
2018-12-23T12:30:41.926Z,7.80
2018-12-23T12:33:11.191Z,7.80
2018-12-23T12:35:39.611Z,7.80
2018-12-23T12:38:07.932Z,7.70
2018-12-23T12:40:36.272Z,7.70
2018-12-23T12:43:04.578Z,7.70
2018-12-23T12:45:33.867Z,7.70
2018-12-23T12:48:02.935Z,7.70
2018-12-23T12:50:31.335Z,7.70
2018-12-23T12:52:59.696Z,7.60
2018-12-23T12:55:27.958Z,7.60
2018-12-23T12:57:56.213Z,7.70
2018-12-23T13:00:24.536Z,7.60
2018-12-23T13:02:52.841Z,7.70
2018-12-23T13:05:21.146Z,7.70
2018-12-23T13:07:49.704Z,7.70
2018-12-23T13:10:18.305Z,7.60
2018-12-23T13:12:46.890Z,7.60
2018-12-23T13:15:15.528Z,7.70
2018-12-23T13:17:43.912Z,7.70
2018-12-23T13:20:13.266Z,7.70
2018-12-23T13:22:41.721Z,7.60
2018-12-23T13:25:10.051Z,7.60
2018-12-23T13:27:38.340Z,7.50
2018-12-23T13:30:07.817Z,7.50
2018-12-23T13:32:36.379Z,7.60
2018-12-23T13:35:04.887Z,7.50
2018-12-23T13:37:33.249Z,7.50
2018-12-23T13:40:05.478Z,7.50
2018-12-23T13:42:38.273Z,7.60
2018-12-23T13:45:11.239Z,7.50
2018-12-23T20:54:59.127Z,5.60
2018-12-23T20:57:44.166Z,5.60
2018-12-23T21:00:36.407Z,5.60
2018-12-23T21:03:40.639Z,5.50
2018-12-23T21:06:42.115Z,5.40
2018-12-23T21:09:47.977Z,5.40
2018-12-23T21:12:39.305Z,5.40
2018-12-23T21:15:41.156Z,5.40
2018-12-23T21:18:14.424Z,5.30
2018-12-23T21:21:08.104Z,5.30
2018-12-23T21:23:43.692Z,5.30
2018-12-23T21:26:31.386Z,5.20
2018-12-23T21:29:26.639Z,5.20
2018-12-23T21:32:02.400Z,5.10
2018-12-23T21:34:40.860Z,5.20
2018-12-23T21:37:16.471Z,5.20
2018-12-23T21:40:13.103Z,5.10
2018-12-23T21:42:54.812Z,5.00
2018-12-23T21:45:36.221Z,4.90
2018-12-23T21:48:15.543Z,5.00
2018-12-23T21:50:54.668Z,5.00
2018-12-23T21:53:30.489Z,5.10
2018-12-23T21:56:18.212Z,5.00
2018-12-23T21:59:09.309Z,5.00
2018-12-23T22:01:48.999Z,5.00
2018-12-23T22:04:29.336Z,5.00
2018-12-23T22:07:30.643Z,5.00
2018-12-23T22:10:13.449Z,4.90
2018-12-23T22:13:01.121Z,4.90
2018-12-23T22:15:30.943Z,4.90
2018-12-23T22:18:00.759Z,4.80
2018-12-23T22:20:30.603Z,4.80
2018-12-23T22:23:00.817Z,4.80
2018-12-23T22:25:31.010Z,4.80
2018-12-23T22:28:01.115Z,4.80
2018-12-23T22:30:30.989Z,4.80
2018-12-23T22:33:00.755Z,4.80
2018-12-23T22:35:30.647Z,4.80
2018-12-23T22:38:00.438Z,4.70
2018-12-23T22:40:30.289Z,4.80
2018-12-23T22:43:00.263Z,4.80
2018-12-23T22:45:30.138Z,4.70
2018-12-23T22:48:00.642Z,4.70
2018-12-23T22:50:30.824Z,4.60
2018-12-23T22:53:00.923Z,4.70
2018-12-23T22:55:31.342Z,4.50
2018-12-23T22:58:02.405Z,4.50
2018-12-23T23:00:34.242Z,4.50
2018-12-23T23:03:23.861Z,4.60
2018-12-23T23:05:54.234Z,4.50
2018-12-23T23:08:24.303Z,4.40
2018-12-23T23:10:55.160Z,4.40
2018-12-23T23:13:25.290Z,4.40
2018-12-23T23:15:55.609Z,4.50
2018-12-23T23:18:25.598Z,4.40
2018-12-23T23:20:55.472Z,4.30
2018-12-23T23:23:25.701Z,4.40
2018-12-23T23:25:55.584Z,4.30
2018-12-23T23:28:25.551Z,4.20
2018-12-23T23:30:55.633Z,4.10
2018-12-23T23:33:25.691Z,4.10
2018-12-23T23:35:55.701Z,4.00
2018-12-23T23:38:25.930Z,3.90
2018-12-23T23:41:00.868Z,3.70
2018-12-23T23:43:32.389Z,3.80
2018-12-23T23:46:02.813Z,3.90
2018-12-23T23:48:32.863Z,3.80
2018-12-23T23:51:02.839Z,3.70
2018-12-23T23:53:33.066Z,3.70
2018-12-23T23:56:02.955Z,3.70
2018-12-23T23:58:33.078Z,3.60
